createdAt,value
2023-01-25T00:02:11.307Z,25.07
2023-01-25T00:04:39.543Z,25.63
2023-01-25T00:07:07.829Z,26.00
2023-01-25T00:09:35.989Z,26.10
2023-01-25T00:12:04.107Z,25.23
2023-01-25T00:14:33.636Z,25.00
2023-01-25T00:17:01.844Z,24.47
2023-01-25T00:19:30.053Z,25.07
2023-01-25T00:21:58.198Z,24.27
2023-01-25T00:24:26.578Z,25.03
2023-01-25T00:26:54.842Z,24.90
2023-01-25T00:29:23.071Z,25.03
2023-01-25T00:32:09.783Z,24.30
2023-01-25T00:34:47.972Z,24.37
2023-01-25T00:37:20.938Z,25.70
2023-01-25T00:39:49.539Z,24.73
2023-01-25T00:42:18.442Z,25.33
2023-01-25T00:44:46.644Z,24.53
2023-01-25T00:47:16.628Z,24.80
2023-01-25T00:49:45.444Z,24.77
2023-01-25T00:52:13.861Z,23.77
2023-01-25T00:54:42.331Z,23.90
2023-01-25T00:57:10.963Z,23.80
2023-01-25T00:59:39.164Z,25.00
2023-01-25T01:02:07.421Z,24.03
2023-01-25T01:04:37.010Z,25.63
2023-01-25T01:07:05.448Z,25.77
2023-01-25T01:09:34.362Z,26.10
2023-01-25T01:12:02.608Z,24.90
2023-01-25T01:14:30.789Z,25.70
2023-01-25T01:16:59.032Z,25.73
2023-01-25T01:19:27.273Z,26.00
2023-01-25T01:21:56.789Z,25.20
2023-01-25T01:24:25.088Z,25.83
2023-01-25T01:26:53.351Z,25.63
2023-01-25T01:29:21.500Z,25.30
2023-01-25T01:31:52.427Z,24.63
2023-01-25T01:34:20.716Z,24.60
2023-01-25T01:36:48.958Z,25.37
2023-01-25T01:39:18.670Z,24.80
2023-01-25T01:41:46.863Z,25.07
2023-01-25T01:44:19.168Z,25.63
2023-01-25T01:46:50.811Z,25.73
2023-01-25T01:49:21.484Z,25.43
2023-01-25T01:51:50.848Z,26.40
2023-01-25T01:54:24.165Z,24.80
2023-01-25T01:56:54.032Z,26.80
2023-01-25T01:59:23.594Z,26.17
2023-01-25T02:01:51.746Z,26.17
2023-01-25T02:04:20.389Z,25.90
2023-01-25T02:06:50.089Z,25.63
2023-01-25T02:09:19.734Z,26.13
2023-01-25T02:11:49.593Z,25.23
2023-01-25T02:14:18.709Z,26.60
2023-01-25T02:16:47.124Z,25.40
2023-01-25T02:19:19.368Z,25.90
2023-01-25T02:21:49.279Z,27.47
2023-01-25T02:24:21.846Z,27.07
2023-01-25T02:26:51.422Z,26.37
2023-01-25T02:29:23.129Z,26.90
2023-01-25T02:31:52.609Z,25.90
2023-01-25T02:34:21.012Z,26.07
2023-01-25T02:36:49.174Z,27.87
2023-01-25T02:39:20.409Z,27.53
2023-01-25T02:41:49.069Z,27.40
2023-01-25T02:44:19.925Z,26.37
2023-01-25T02:46:48.639Z,25.97
2023-01-25T02:49:17.284Z,26.53
2023-01-25T02:51:47.590Z,27.67
2023-01-25T02:54:16.424Z,26.33
2023-01-25T02:56:44.785Z,26.40
2023-01-25T02:59:13.501Z,27.80
2023-01-25T03:01:44.354Z,26.73
2023-01-25T03:04:12.674Z,27.47
2023-01-25T03:06:41.596Z,27.93
2023-01-25T03:09:12.136Z,26.60
2023-01-25T03:11:40.384Z,26.47
2023-01-25T03:14:08.680Z,27.63
2023-01-25T03:16:36.822Z,27.00
2023-01-25T03:19:06.515Z,26.60
2023-01-25T03:21:34.724Z,27.00
2023-01-25T03:24:03.755Z,26.93
2023-01-25T03:26:52.015Z,27.43
2023-01-25T03:29:20.187Z,27.80
2023-01-25T03:31:48.499Z,27.77
2023-01-25T03:34:18.173Z,26.83
2023-01-25T03:36:46.381Z,27.63
2023-01-25T03:39:14.659Z,26.67
2023-01-25T03:41:42.872Z,27.00
2023-01-25T03:44:11.606Z,26.60
2023-01-25T03:46:39.911Z,26.60
2023-01-25T03:49:08.183Z,26.67
2023-01-25T03:51:37.678Z,28.37
2023-01-25T03:54:06.100Z,27.80
2023-01-25T03:56:34.294Z,29.47
2023-01-25T03:59:02.445Z,29.47
2023-01-25T04:01:30.613Z,31.53
2023-01-25T04:03:58.782Z,31.27
2023-01-25T04:06:27.015Z,32.37
2023-01-25T04:08:56.505Z,30.10
2023-01-25T04:11:24.706Z,30.80
2023-01-25T04:13:52.876Z,31.73
2023-01-25T04:16:21.075Z,32.20
2023-01-25T04:18:49.290Z,31.70
2023-01-25T04:21:17.460Z,30.77
2023-01-25T04:23:45.724Z,30.67
2023-01-25T04:26:15.641Z,34.20
2023-01-25T04:28:43.801Z,32.63
2023-01-25T04:31:12.017Z,32.73
2023-01-25T04:33:40.238Z,31.23
2023-01-25T04:36:08.784Z,30.40
2023-01-25T04:38:36.939Z,32.63
2023-01-25T04:41:05.223Z,31.63
2023-01-25T04:43:34.804Z,31.40
2023-01-25T04:46:03.573Z,33.33
2023-01-25T04:48:32.093Z,34.17
2023-01-25T04:51:00.287Z,32.37
2023-01-25T04:53:28.543Z,32.90
2023-01-25T04:55:56.741Z,32.23
2023-01-25T04:58:24.958Z,31.27
2023-01-25T05:00:54.573Z,32.00
2023-01-25T05:03:22.743Z,29.60
2023-01-25T05:05:50.927Z,32.00
2023-01-25T05:08:19.056Z,30.83
2023-01-25T05:10:47.264Z,29.63
2023-01-25T05:13:15.469Z,31.33
2023-01-25T05:15:43.626Z,30.67
2023-01-25T05:18:13.228Z,32.40
2023-01-25T05:20:41.388Z,31.80
2023-01-25T05:23:09.534Z,31.43
2023-01-25T05:25:55.439Z,32.27
2023-01-25T05:28:23.628Z,30.77
2023-01-25T05:30:51.787Z,30.00
2023-01-25T05:33:21.353Z,29.97
2023-01-25T05:35:49.556Z,30.57
2023-01-25T05:38:17.772Z,30.10
2023-01-25T05:40:45.947Z,32.10
2023-01-25T05:43:14.080Z,31.90
2023-01-25T05:45:42.271Z,33.00
2023-01-25T05:48:10.455Z,32.40
2023-01-25T05:50:40.041Z,33.57
2023-01-25T05:53:08.253Z,32.93
2023-01-25T05:55:37.458Z,34.30
2023-01-25T05:58:05.692Z,32.13
2023-01-25T06:00:33.836Z,34.23
2023-01-25T06:03:02.657Z,34.63
2023-01-25T06:05:30.874Z,32.17
2023-01-25T06:08:00.967Z,33.57
2023-01-25T06:10:29.145Z,32.83
2023-01-25T06:13:00.463Z,33.27
2023-01-25T06:15:28.896Z,34.53
2023-01-25T06:17:57.145Z,35.87
2023-01-25T06:20:25.353Z,33.33
2023-01-25T06:22:53.827Z,33.77
2023-01-25T06:25:23.360Z,34.17
2023-01-25T06:27:51.579Z,34.13
2023-01-25T06:30:19.950Z,34.90
2023-01-25T06:32:48.146Z,36.10
2023-01-25T06:35:16.376Z,34.70
2023-01-25T06:37:44.548Z,34.97
2023-01-25T06:40:13.285Z,34.67
2023-01-25T06:42:42.838Z,35.77
2023-01-25T06:45:12.078Z,34.83
2023-01-25T06:47:40.675Z,34.63
2023-01-25T06:50:09.402Z,34.43
2023-01-25T06:52:37.927Z,34.00
2023-01-25T06:55:07.657Z,34.77
2023-01-25T06:57:36.150Z,33.37
2023-01-25T07:00:06.142Z,33.47
2023-01-25T07:02:34.356Z,34.43
2023-01-25T07:05:02.543Z,34.13
2023-01-25T07:07:30.770Z,33.97
2023-01-25T07:10:00.450Z,33.17
2023-01-25T07:12:29.899Z,32.53
2023-01-25T07:14:58.128Z,34.73
2023-01-25T07:17:27.651Z,34.57
2023-01-25T07:19:55.870Z,40.75
2023-01-25T07:22:24.061Z,37.30
2023-01-25T07:24:53.851Z,34.67
2023-01-25T07:27:22.006Z,33.73
2023-01-25T07:29:50.238Z,33.60
2023-01-25T07:32:18.403Z,32.20
2023-01-25T07:34:47.978Z,34.67
2023-01-25T07:37:16.091Z,32.93
2023-01-25T07:39:48.504Z,34.53
2023-01-25T07:42:17.032Z,31.27
2023-01-25T07:44:45.213Z,33.70
2023-01-25T07:47:13.414Z,34.50
2023-01-25T07:49:41.631Z,34.23
2023-01-25T07:52:11.144Z,33.53
2023-01-25T07:54:39.309Z,34.43
2023-01-25T07:57:07.443Z,32.60
2023-01-25T07:59:35.679Z,33.53
2023-01-25T08:02:03.911Z,31.73
2023-01-25T08:04:32.210Z,32.80
2023-01-25T08:07:00.422Z,32.73
2023-01-25T08:09:29.931Z,30.50
2023-01-25T08:11:58.089Z,30.90
2023-01-25T08:14:26.275Z,32.33
2023-01-25T08:16:54.488Z,31.83
2023-01-25T08:19:24.896Z,33.30
2023-01-25T08:21:53.329Z,32.53
2023-01-25T08:24:22.943Z,32.37
2023-01-25T08:26:53.402Z,33.80
2023-01-25T08:29:21.552Z,31.43
2023-01-25T08:31:49.743Z,33.77
2023-01-25T08:34:18.102Z,31.10
2023-01-25T08:36:46.281Z,30.63
2023-01-25T08:39:14.748Z,31.40
2023-01-25T08:41:43.021Z,30.10
2023-01-25T08:44:12.858Z,29.43
2023-01-25T08:46:41.012Z,30.57
2023-01-25T08:49:10.672Z,30.57
2023-01-25T08:51:38.841Z,30.47
2023-01-25T08:54:07.483Z,31.87
2023-01-25T08:56:35.648Z,31.83
2023-01-25T08:59:03.869Z,32.37
2023-01-25T09:01:33.561Z,31.93
2023-01-25T09:04:01.830Z,31.37
2023-01-25T09:06:30.071Z,30.60
2023-01-25T09:08:58.235Z,32.10
2023-01-25T09:11:26.429Z,30.57
2023-01-25T09:13:54.742Z,31.07
2023-01-25T09:16:28.751Z,31.00
2023-01-25T09:18:59.680Z,29.57
2023-01-25T09:21:28.159Z,30.03
2023-01-25T09:24:06.076Z,30.43
2023-01-25T09:26:35.084Z,30.53
2023-01-25T09:29:03.343Z,30.90
2023-01-25T09:31:31.631Z,30.40
2023-01-25T09:34:01.364Z,29.63
2023-01-25T09:36:29.581Z,31.83
2023-01-25T09:38:57.881Z,32.00
2023-01-25T09:41:36.733Z,29.93
2023-01-25T09:44:15.206Z,30.60
2023-01-25T09:46:45.246Z,31.50
2023-01-25T09:49:23.140Z,31.07
2023-01-25T09:51:59.895Z,31.50
2023-01-25T09:54:29.936Z,31.27
2023-01-25T09:57:00.125Z,29.67
2023-01-25T09:59:30.651Z,29.47
2023-01-25T10:02:00.234Z,30.97
2023-01-25T10:04:31.997Z,30.83
2023-01-25T10:07:03.223Z,31.00
2023-01-25T10:09:35.722Z,32.10
2023-01-25T10:12:17.095Z,31.17
2023-01-25T10:14:45.511Z,30.97
2023-01-25T10:17:16.211Z,30.37
2023-01-25T10:19:51.285Z,32.10
2023-01-25T10:22:21.791Z,30.37
2023-01-25T10:25:05.338Z,30.00
2023-01-25T10:27:36.313Z,29.53
2023-01-25T10:30:14.591Z,30.77
2023-01-25T10:32:55.347Z,30.07
2023-01-25T10:35:35.542Z,30.00
2023-01-25T10:38:06.966Z,28.43
2023-01-25T10:40:41.456Z,27.93
2023-01-25T10:43:12.275Z,28.13
2023-01-25T10:45:43.033Z,30.20
2023-01-25T10:48:13.919Z,29.37
2023-01-25T10:50:50.878Z,29.73
2023-01-25T10:53:23.872Z,29.47
2023-01-25T10:55:57.132Z,29.60
2023-01-25T10:58:32.622Z,30.53
2023-01-25T11:01:01.503Z,29.23
2023-01-25T11:03:35.777Z,28.77
2023-01-25T11:06:05.986Z,28.43
2023-01-25T11:08:35.327Z,29.10
2023-01-25T11:11:15.784Z,27.53
2023-01-25T11:13:44.017Z,29.00
2023-01-25T11:16:18.284Z,29.77
2023-01-25T11:18:51.501Z,29.53
2023-01-25T11:21:23.331Z,29.03
2023-01-25T11:24:15.806Z,28.53
2023-01-25T11:26:44.136Z,28.97
2023-01-25T11:29:16.597Z,42.37
2023-01-25T11:31:46.689Z,30.17
2023-01-25T11:34:15.719Z,29.43
2023-01-25T11:37:01.523Z,31.73
2023-01-25T11:39:42.129Z,28.80
2023-01-25T11:42:19.653Z,29.10
2023-01-25T11:45:08.789Z,27.30
2023-01-25T11:47:42.679Z,29.40
2023-01-25T11:50:15.809Z,29.10
2023-01-25T11:52:55.560Z,29.60
2023-01-25T11:55:27.828Z,29.07
2023-01-25T11:58:02.749Z,29.63
2023-01-25T12:00:40.218Z,29.50
2023-01-25T12:03:22.908Z,31.27
2023-01-25T12:05:55.210Z,29.70
2023-01-25T12:08:40.738Z,27.97
2023-01-25T12:11:15.339Z,28.10
2023-01-25T12:13:48.219Z,28.40
2023-01-25T12:16:35.280Z,26.53
2023-01-25T12:19:18.369Z,27.60
2023-01-25T12:21:53.547Z,27.63
2023-01-25T12:24:28.541Z,26.00
2023-01-25T12:27:01.283Z,26.63
2023-01-25T12:29:32.481Z,26.53
2023-01-25T12:32:03.589Z,27.13
2023-01-25T12:34:35.724Z,27.20
2023-01-25T12:37:07.892Z,28.53
2023-01-25T12:39:38.756Z,27.67
2023-01-25T12:42:14.002Z,26.63
2023-01-25T12:44:43.921Z,27.57
2023-01-25T12:47:15.825Z,27.47
2023-01-25T12:49:46.029Z,27.00
2023-01-25T12:52:17.768Z,25.30
2023-01-25T12:54:46.874Z,30.23
2023-01-25T12:57:22.331Z,30.23
2023-01-25T12:59:56.327Z,30.40
2023-01-25T13:02:30.321Z,30.70
2023-01-25T13:05:03.188Z,29.80
2023-01-25T13:07:35.992Z,29.43
2023-01-25T13:10:10.392Z,28.83
2023-01-25T13:12:56.098Z,28.53
2023-01-25T13:15:37.508Z,27.60
2023-01-25T13:18:20.601Z,28.30
2023-01-25T13:20:50.196Z,28.27
2023-01-25T13:23:31.567Z,26.20
2023-01-25T13:26:14.581Z,26.03
2023-01-25T13:28:45.775Z,27.73
2023-01-25T13:31:53.000Z,27.33
2023-01-25T13:34:36.567Z,26.47
2023-01-25T13:37:04.980Z,27.20
2023-01-25T13:39:43.996Z,26.23
2023-01-25T13:42:21.103Z,25.80
2023-01-25T13:44:51.938Z,27.47
2023-01-25T13:47:22.588Z,25.87
2023-01-25T13:49:53.846Z,26.00
2023-01-25T13:52:22.772Z,25.43
2023-01-25T13:54:52.144Z,25.83
2023-01-25T13:57:22.179Z,25.73
2023-01-25T14:00:09.798Z,24.80
2023-01-25T14:02:39.241Z,26.77
2023-01-25T14:05:08.733Z,27.10
2023-01-25T14:07:37.818Z,25.43
2023-01-25T14:10:10.619Z,27.40
2023-01-25T14:12:40.531Z,26.10
2023-01-25T14:15:18.142Z,25.60
2023-01-25T14:17:46.720Z,25.00
2023-01-25T14:20:21.899Z,26.83
2023-01-25T14:22:50.618Z,26.03
2023-01-25T14:25:19.646Z,27.77
2023-01-25T14:27:48.652Z,27.83
2023-01-25T14:30:23.077Z,25.87
2023-01-25T14:32:52.145Z,26.83
2023-01-25T14:35:43.261Z,26.50
2023-01-25T14:38:23.097Z,25.93
2023-01-25T14:40:52.388Z,26.53
2023-01-25T14:43:21.008Z,27.10
2023-01-25T14:45:50.579Z,27.63
2023-01-25T14:48:37.503Z,27.17
2023-01-25T14:51:07.195Z,26.07
2023-01-25T14:53:35.446Z,27.00
2023-01-25T14:56:03.997Z,26.10
2023-01-25T14:58:32.200Z,26.17
2023-01-25T15:01:02.349Z,28.57
2023-01-25T15:03:31.069Z,26.70
2023-01-25T15:06:00.570Z,27.53
2023-01-25T15:08:29.970Z,27.07
2023-01-25T15:11:18.719Z,27.87
2023-01-25T15:13:47.169Z,26.97
2023-01-25T15:16:17.206Z,28.53
2023-01-25T15:18:46.195Z,27.90
2023-01-25T15:21:15.289Z,28.10
2023-01-25T15:23:44.224Z,28.43
2023-01-25T15:26:16.736Z,29.00
2023-01-25T15:28:44.925Z,28.70
2023-01-25T15:31:17.414Z,29.67
2023-01-25T15:33:47.031Z,26.87
2023-01-25T15:36:15.966Z,27.83
2023-01-25T15:38:44.146Z,29.07
2023-01-25T15:41:13.498Z,28.70
2023-01-25T15:43:41.749Z,29.37
2023-01-25T15:46:15.815Z,28.70
2023-01-25T15:48:44.849Z,29.57
2023-01-25T15:51:14.902Z,30.00
2023-01-25T15:53:43.200Z,31.07
2023-01-25T15:56:15.088Z,29.70
2023-01-25T15:58:44.588Z,30.27
2023-01-25T16:01:12.734Z,30.77
2023-01-25T16:03:41.726Z,31.33
2023-01-25T16:06:21.943Z,31.13
2023-01-25T16:08:51.514Z,32.63
2023-01-25T16:11:19.671Z,32.27
2023-01-25T16:13:48.037Z,31.73
2023-01-25T16:16:18.939Z,30.47
2023-01-25T16:18:47.188Z,28.67
2023-01-25T16:21:15.511Z,33.10
2023-01-25T16:23:43.954Z,32.47
2023-01-25T16:26:17.380Z,31.40
2023-01-25T16:28:45.579Z,33.13
2023-01-25T16:31:30.908Z,32.93
2023-01-25T16:33:59.861Z,33.53
2023-01-25T16:36:28.039Z,34.17
2023-01-25T16:38:56.306Z,34.00
2023-01-25T16:41:25.808Z,35.87
2023-01-25T16:43:53.914Z,33.53
2023-01-25T16:46:23.338Z,34.50
2023-01-25T16:48:53.359Z,34.33
2023-01-25T16:51:22.465Z,34.40
2023-01-25T16:53:51.475Z,35.23
2023-01-25T16:56:20.124Z,35.50
2023-01-25T16:58:50.123Z,37.77
2023-01-25T17:01:19.538Z,34.63
2023-01-25T17:03:47.984Z,34.90
2023-01-25T17:06:18.637Z,36.70
2023-01-25T17:08:46.809Z,35.27
2023-01-25T17:11:15.485Z,36.50
2023-01-25T17:13:43.719Z,36.17
2023-01-25T17:16:13.268Z,37.27
2023-01-25T17:18:41.460Z,36.90
2023-01-25T17:21:09.645Z,36.93
2023-01-25T17:23:38.892Z,37.97
2023-01-25T17:26:08.167Z,36.43
2023-01-25T17:28:38.798Z,37.63
2023-01-25T17:31:07.366Z,36.83
2023-01-25T17:33:36.914Z,38.67
2023-01-25T17:36:05.235Z,38.17
2023-01-25T17:38:33.406Z,39.73
2023-01-25T17:41:04.598Z,38.90
2023-01-25T17:43:34.509Z,40.23
2023-01-25T17:46:11.731Z,39.10
2023-01-25T17:48:41.351Z,39.53
2023-01-25T17:51:09.631Z,40.30
2023-01-25T17:53:37.811Z,42.20
2023-01-25T17:56:06.362Z,42.10
2023-01-25T17:58:36.690Z,42.87
2023-01-25T18:01:13.778Z,42.83
2023-01-25T18:03:43.865Z,44.17
2023-01-25T18:06:12.554Z,43.97
2023-01-25T18:08:41.216Z,43.73
2023-01-25T18:11:10.266Z,44.13
2023-01-25T18:13:40.855Z,44.33
2023-01-25T18:16:09.582Z,44.33
2023-01-25T18:18:37.827Z,43.17
2023-01-25T18:21:09.012Z,44.20
2023-01-25T18:23:37.381Z,44.73
2023-01-25T18:26:06.526Z,43.57
2023-01-25T18:28:34.896Z,45.07
2023-01-25T18:31:05.891Z,43.87
2023-01-25T18:33:34.164Z,43.90
2023-01-25T18:36:03.920Z,43.00
2023-01-25T18:38:33.830Z,44.63
2023-01-25T18:41:02.088Z,45.80
2023-01-25T18:43:30.300Z,45.80
2023-01-25T18:45:59.586Z,45.27
2023-01-25T18:48:31.261Z,44.17
2023-01-25T18:50:59.779Z,44.50
2023-01-25T18:53:28.246Z,43.97
2023-01-25T18:56:01.770Z,42.80
2023-01-25T18:58:31.263Z,43.37
2023-01-25T19:01:03.661Z,43.23
2023-01-25T19:03:31.934Z,43.00
2023-01-25T19:06:00.498Z,42.17
2023-01-25T19:08:29.567Z,43.63
2023-01-25T19:11:03.499Z,41.10
2023-01-25T19:13:34.517Z,42.57
2023-01-25T19:16:04.020Z,42.53
2023-01-25T19:18:33.750Z,49.47
2023-01-25T19:21:02.296Z,52.72
2023-01-25T19:23:34.548Z,45.87
2023-01-25T19:26:04.432Z,45.30
2023-01-25T19:28:34.539Z,44.60
2023-01-25T19:31:07.332Z,44.83
2023-01-25T19:33:35.806Z,43.93
2023-01-25T19:36:05.290Z,44.03
2023-01-25T19:38:33.856Z,43.90
2023-01-25T19:41:07.435Z,44.50
2023-01-25T19:43:35.696Z,42.43
2023-01-25T19:46:10.629Z,44.33
2023-01-25T19:48:39.237Z,44.90
2023-01-25T19:51:08.028Z,42.60
2023-01-25T19:53:36.163Z,45.57
2023-01-25T19:56:04.716Z,44.60
2023-01-25T19:58:34.503Z,43.83
2023-01-25T20:01:09.246Z,46.23
2023-01-25T20:03:37.783Z,43.80
2023-01-25T20:06:07.029Z,42.57
2023-01-25T20:08:36.185Z,42.43
2023-01-25T20:11:06.020Z,43.67
2023-01-25T20:13:35.582Z,41.70
2023-01-25T20:16:03.939Z,39.67
2023-01-25T20:18:32.296Z,38.90
2023-01-25T20:21:01.257Z,40.03
2023-01-25T20:23:32.486Z,40.03
2023-01-25T20:26:01.392Z,39.47
2023-01-25T20:28:29.825Z,41.03
2023-01-25T20:31:03.605Z,39.43
2023-01-25T20:33:31.888Z,38.33
2023-01-25T20:36:00.773Z,38.70
2023-01-25T20:38:31.097Z,39.70
2023-01-25T20:41:02.497Z,40.27
2023-01-25T20:43:31.485Z,40.50
2023-01-25T20:46:01.389Z,40.13
2023-01-25T20:48:31.170Z,40.93
2023-01-25T20:51:02.592Z,39.33
2023-01-25T20:53:31.024Z,38.33
2023-01-25T20:55:59.987Z,38.50
2023-01-25T20:58:28.495Z,38.67
2023-01-25T21:00:56.735Z,38.30
2023-01-25T21:03:28.071Z,38.10
2023-01-25T21:05:58.218Z,35.10
2023-01-25T21:08:27.128Z,35.77
2023-01-25T21:10:55.945Z,34.53
2023-01-25T21:13:24.812Z,35.87
2023-01-25T21:15:59.544Z,35.53
2023-01-25T21:18:30.778Z,34.87
2023-01-25T21:21:06.878Z,33.10
2023-01-25T21:23:35.279Z,33.83
2023-01-25T21:26:03.741Z,32.80
2023-01-25T21:28:32.384Z,33.13
2023-01-25T21:31:01.007Z,32.87
2023-01-25T21:33:30.545Z,32.17
2023-01-25T21:36:01.639Z,30.83
2023-01-25T21:38:29.859Z,34.17
2023-01-25T21:41:01.832Z,31.27
2023-01-25T21:43:30.056Z,32.80
2023-01-25T21:46:13.934Z,31.80
2023-01-25T21:49:01.204Z,34.53
2023-01-25T21:51:39.661Z,33.07
2023-01-25T21:54:07.899Z,32.77
2023-01-25T21:56:36.052Z,33.33
2023-01-25T21:59:04.281Z,31.93
2023-01-25T22:01:32.501Z,31.83
2023-01-25T22:04:02.043Z,30.97
2023-01-25T22:06:30.228Z,31.00
2023-01-25T22:08:58.336Z,31.07
2023-01-25T22:11:26.520Z,30.53
2023-01-25T22:13:55.342Z,30.57
2023-01-25T22:16:23.698Z,29.53
2023-01-25T22:18:52.217Z,29.37
2023-01-25T22:21:22.455Z,29.40
2023-01-25T22:23:50.974Z,29.33
2023-01-25T22:26:20.039Z,26.03
2023-01-25T22:28:49.261Z,28.83
2023-01-25T22:31:18.088Z,27.90
2023-01-25T22:33:46.286Z,27.87
2023-01-25T22:36:15.425Z,28.10
2023-01-25T22:38:45.196Z,27.40
2023-01-25T22:41:14.104Z,27.33
2023-01-25T22:43:42.809Z,26.10
2023-01-25T22:46:14.213Z,24.63
2023-01-25T22:48:42.598Z,27.00
2023-01-25T22:51:12.414Z,25.10
2023-01-25T22:53:40.567Z,26.43
2023-01-25T22:56:11.864Z,26.93
2023-01-25T22:58:40.713Z,25.63
2023-01-25T23:01:10.242Z,25.23
2023-01-25T23:03:38.443Z,24.43
2023-01-25T23:06:07.711Z,23.27
2023-01-25T23:08:36.966Z,24.00
2023-01-25T23:11:07.252Z,23.80
2023-01-25T23:13:37.513Z,24.20
2023-01-25T23:16:06.569Z,23.63
2023-01-25T23:18:52.206Z,23.07
2023-01-25T23:21:21.170Z,22.27
2023-01-25T23:23:49.718Z,23.13
2023-01-25T23:26:18.148Z,22.63
2023-01-25T23:28:52.002Z,21.73
2023-01-25T23:31:21.722Z,23.50
2023-01-25T23:33:51.134Z,21.53
2023-01-25T23:36:19.919Z,22.07
2023-01-25T23:38:48.478Z,24.90
2023-01-25T23:41:17.740Z,24.03
2023-01-25T23:43:46.382Z,22.73
2023-01-25T23:46:16.200Z,23.00
2023-01-25T23:48:44.745Z,23.47
2023-01-25T23:51:16.217Z,21.70
2023-01-25T23:53:44.918Z,21.27
2023-01-25T23:56:14.501Z,24.07
2023-01-25T23:58:42.895Z,24.87
